createdAt,value
2023-12-15T00:00:23.069Z,96.26
2023-12-15T00:00:55.652Z,96.36
2023-12-15T00:01:27.939Z,96.26
2023-12-15T00:02:00.420Z,96.26
2023-12-15T00:02:32.914Z,96.36
2023-12-15T00:03:05.399Z,96.36
2023-12-15T00:03:38.365Z,96.36
2023-12-15T00:04:10.861Z,96.36
2023-12-15T00:04:43.272Z,96.26
2023-12-15T00:05:15.785Z,96.36
2023-12-15T00:05:48.251Z,96.36
2023-12-15T00:06:20.731Z,96.36
2023-12-15T00:06:53.174Z,96.26
2023-12-15T00:07:25.641Z,96.36
2023-12-15T00:07:58.221Z,96.36
2023-12-15T00:08:30.712Z,96.36
2023-12-15T00:09:03.211Z,96.36
2023-12-15T00:09:35.731Z,96.36
2023-12-15T00:10:08.196Z,96.36
2023-12-15T00:10:40.680Z,96.36
2023-12-15T00:11:13.200Z,96.36
2023-12-15T00:11:45.639Z,96.36
2023-12-15T00:12:18.071Z,96.36
2023-12-15T00:12:50.513Z,96.36
2023-12-15T00:13:22.978Z,96.36
2023-12-15T00:13:55.532Z,96.36
2023-12-15T00:14:28.001Z,96.36
2023-12-15T00:15:00.421Z,96.36
2023-12-15T00:15:32.893Z,96.36
2023-12-15T00:16:05.340Z,96.36
2023-12-15T00:16:37.794Z,96.47
2023-12-15T00:17:10.294Z,96.47
2023-12-15T00:17:43.222Z,96.47
2023-12-15T00:18:15.350Z,96.47
2023-12-15T00:18:47.803Z,96.47
2023-12-15T00:19:20.303Z,96.47
2023-12-15T00:19:52.752Z,96.47
2023-12-15T00:20:25.258Z,96.47
2023-12-15T00:20:57.630Z,96.47
2023-12-15T00:21:30.070Z,96.47
2023-12-15T00:22:02.551Z,96.47
2023-12-15T00:22:35.073Z,96.47
2023-12-15T00:23:07.550Z,96.57
2023-12-15T00:23:39.935Z,96.47
2023-12-15T00:24:12.398Z,96.47
2023-12-15T00:24:44.887Z,96.47
2023-12-15T00:25:17.372Z,96.47
2023-12-15T00:25:49.909Z,96.47
2023-12-15T00:26:22.387Z,96.47
2023-12-15T00:26:54.920Z,96.57
2023-12-15T00:27:27.362Z,96.47
2023-12-15T00:27:59.793Z,96.47
2023-12-15T00:28:32.300Z,96.47
2023-12-15T00:29:04.798Z,96.47
2023-12-15T00:29:37.157Z,96.47
2023-12-15T00:30:09.727Z,96.47
2023-12-15T00:30:42.198Z,96.57
2023-12-15T00:31:14.656Z,96.57
2023-12-15T00:31:48.010Z,96.57
2023-12-15T00:32:20.535Z,96.57
2023-12-15T00:32:53.064Z,96.57
2023-12-15T00:33:25.545Z,96.57
2023-12-15T00:33:57.974Z,96.57
2023-12-15T00:34:30.493Z,96.57
2023-12-15T00:35:02.981Z,96.57
2023-12-15T00:35:35.443Z,96.57
2023-12-15T00:36:07.848Z,96.57
2023-12-15T00:36:40.362Z,96.57
2023-12-15T00:37:12.911Z,96.57
2023-12-15T00:37:45.345Z,96.57
2023-12-15T00:38:17.865Z,96.57
2023-12-15T00:38:50.308Z,96.57
2023-12-15T00:39:22.958Z,96.57
2023-12-15T00:39:55.451Z,96.57
2023-12-15T00:40:27.944Z,96.57
2023-12-15T00:41:00.454Z,96.57
2023-12-15T00:41:32.971Z,96.57
2023-12-15T00:42:05.424Z,96.57
2023-12-15T00:42:37.836Z,96.57
2023-12-15T00:43:10.293Z,96.57
2023-12-15T00:43:42.720Z,96.57
2023-12-15T00:44:15.176Z,96.57
2023-12-15T00:44:47.629Z,96.57
2023-12-15T00:45:20.150Z,96.57
2023-12-15T00:45:52.627Z,96.57
2023-12-15T00:46:25.138Z,96.57
2023-12-15T00:46:57.709Z,96.57
2023-12-15T00:47:30.230Z,96.57
2023-12-15T00:48:02.701Z,96.57
2023-12-15T00:48:35.263Z,96.57
2023-12-15T00:49:07.669Z,96.57
2023-12-15T00:49:40.020Z,96.57
2023-12-15T00:50:12.457Z,96.57
2023-12-15T00:50:44.883Z,96.57
2023-12-15T00:51:17.310Z,96.57
2023-12-15T00:51:49.741Z,96.57
2023-12-15T00:52:22.221Z,96.52
2023-12-15T00:52:54.698Z,96.52
2023-12-15T00:53:27.213Z,96.57
2023-12-15T00:53:59.672Z,96.57
2023-12-15T00:54:32.116Z,96.67
2023-12-15T00:55:04.523Z,96.62
2023-12-15T00:55:37.023Z,96.62
2023-12-15T00:56:09.543Z,96.52
2023-12-15T00:56:42.004Z,96.57
2023-12-15T00:57:14.462Z,96.52
2023-12-15T00:57:50.793Z,96.62
2023-12-15T00:58:23.270Z,96.62
2023-12-15T00:58:55.831Z,96.62
2023-12-15T00:59:28.335Z,96.62
2023-12-15T01:00:00.801Z,96.62
2023-12-15T01:00:33.331Z,96.62
2023-12-15T01:01:05.778Z,96.62
2023-12-15T01:01:38.180Z,96.62
2023-12-15T01:02:10.641Z,96.62
2023-12-15T01:02:43.100Z,96.62
2023-12-15T01:03:15.597Z,96.62
2023-12-15T01:03:48.071Z,96.62
2023-12-15T01:04:20.548Z,96.62
2023-12-15T01:04:53.182Z,96.62
2023-12-15T01:05:25.586Z,96.62
2023-12-15T01:05:58.166Z,96.62
2023-12-15T01:06:30.638Z,96.62
2023-12-15T01:07:03.140Z,96.62
2023-12-15T01:07:35.947Z,96.62
2023-12-15T01:08:08.190Z,96.62
2023-12-15T01:08:40.616Z,96.62
2023-12-15T01:09:13.068Z,96.73
2023-12-15T01:09:45.541Z,96.62
2023-12-15T01:10:25.763Z,96.62
2023-12-15T01:10:58.242Z,96.62
2023-12-15T01:11:30.784Z,96.62
2023-12-15T01:12:03.184Z,96.62
2023-12-15T01:12:35.605Z,96.73
2023-12-15T01:13:08.130Z,96.62
2023-12-15T01:13:40.581Z,96.73
2023-12-15T01:14:13.119Z,96.73
2023-12-15T01:14:45.595Z,96.73
2023-12-15T01:15:18.031Z,96.73
2023-12-15T01:15:50.483Z,96.73
2023-12-15T01:16:22.930Z,96.73
2023-12-15T01:16:55.462Z,96.73
2023-12-15T01:17:27.982Z,96.73
2023-12-15T01:18:00.638Z,96.73
2023-12-15T01:18:32.985Z,96.73
2023-12-15T01:19:05.494Z,96.73
2023-12-15T01:19:38.014Z,96.73
2023-12-15T01:20:10.570Z,96.73
2023-12-15T01:20:42.945Z,96.73
2023-12-15T01:21:15.369Z,96.73
2023-12-15T01:21:47.814Z,96.73
2023-12-15T01:22:20.337Z,96.83
2023-12-15T01:22:52.889Z,96.73
2023-12-15T01:23:25.329Z,96.83
2023-12-15T01:23:57.771Z,96.83
2023-12-15T01:24:30.266Z,96.83
2023-12-15T01:25:02.751Z,96.83
2023-12-15T01:25:35.254Z,96.83
2023-12-15T01:26:07.736Z,96.83
2023-12-15T01:26:40.209Z,96.83
2023-12-15T01:27:12.659Z,96.94
2023-12-15T01:27:45.080Z,96.94
2023-12-15T01:28:17.571Z,96.94
2023-12-15T01:28:50.075Z,96.94
2023-12-15T01:29:22.547Z,96.94
2023-12-15T01:29:55.015Z,96.94
2023-12-15T01:30:27.492Z,96.94
2023-12-15T01:30:59.891Z,96.94
2023-12-15T01:31:32.315Z,96.94
2023-12-15T01:32:04.829Z,96.94
2023-12-15T01:32:37.359Z,96.94
2023-12-15T01:33:09.765Z,97.04
2023-12-15T01:33:42.257Z,97.04
2023-12-15T01:34:14.780Z,97.04
2023-12-15T01:34:47.190Z,97.04
2023-12-15T01:35:19.726Z,97.04
2023-12-15T01:35:52.088Z,97.04
2023-12-15T01:36:24.560Z,97.04
2023-12-15T01:36:57.060Z,97.04
2023-12-15T01:37:29.479Z,97.04
2023-12-15T01:38:01.958Z,97.04
2023-12-15T01:38:34.464Z,97.04
2023-12-15T01:39:07.030Z,97.04
2023-12-15T01:39:39.570Z,97.04
2023-12-15T01:40:12.122Z,97.04
2023-12-15T01:40:44.584Z,97.04
2023-12-15T01:41:17.149Z,97.14
2023-12-15T01:41:49.523Z,97.14
2023-12-15T01:42:21.948Z,97.04
2023-12-15T01:42:54.373Z,97.14
2023-12-15T01:43:26.819Z,97.14
2023-12-15T01:43:59.370Z,97.04
2023-12-15T01:44:31.885Z,97.14
2023-12-15T01:45:04.421Z,97.14
2023-12-15T01:45:36.730Z,97.14
2023-12-15T01:46:14.818Z,97.25
2023-12-15T01:46:41.638Z,97.14
2023-12-15T01:47:14.091Z,97.14
2023-12-15T01:47:46.610Z,97.25
2023-12-15T01:48:19.011Z,97.25
2023-12-15T01:48:51.537Z,97.25
2023-12-15T01:49:23.925Z,97.25
2023-12-15T01:49:56.379Z,97.25
2023-12-15T01:50:29.625Z,97.25
2023-12-15T01:51:02.092Z,97.25
2023-12-15T01:51:34.564Z,97.25
2023-12-15T01:52:07.110Z,97.25
2023-12-15T01:52:39.626Z,97.25
2023-12-15T01:53:12.157Z,97.35
2023-12-15T01:53:44.725Z,97.35
2023-12-15T01:54:17.158Z,97.25
2023-12-15T01:54:49.707Z,97.25
2023-12-15T01:55:22.197Z,97.25
2023-12-15T01:55:54.716Z,97.35
2023-12-15T01:56:27.235Z,97.25
2023-12-15T01:56:59.749Z,97.35
2023-12-15T01:57:32.233Z,97.35
2023-12-15T01:58:04.958Z,97.35
2023-12-15T01:58:37.388Z,97.35
2023-12-15T01:59:09.936Z,97.35
2023-12-15T01:59:42.308Z,97.35
2023-12-15T02:00:14.794Z,97.35
2023-12-15T02:00:47.341Z,97.35
2023-12-15T02:01:19.767Z,97.35
2023-12-15T02:01:52.248Z,97.35
2023-12-15T02:02:24.768Z,97.35
2023-12-15T02:02:57.277Z,97.31
2023-12-15T02:03:30.360Z,97.31
2023-12-15T02:04:02.906Z,97.31
2023-12-15T02:04:35.451Z,97.35
2023-12-15T02:05:08.122Z,97.41
2023-12-15T02:05:40.422Z,97.41
2023-12-15T02:06:12.999Z,97.41
2023-12-15T02:06:45.377Z,97.41
2023-12-15T02:07:17.933Z,97.41
2023-12-15T02:07:50.472Z,97.41
2023-12-15T02:08:23.018Z,97.41
2023-12-15T02:08:55.487Z,97.41
2023-12-15T02:09:27.996Z,97.41
2023-12-15T02:10:00.476Z,97.31
2023-12-15T02:10:32.951Z,97.31
2023-12-15T02:11:05.488Z,97.41
2023-12-15T02:11:38.041Z,97.41
2023-12-15T02:12:10.511Z,97.41
2023-12-15T02:12:43.008Z,97.41
2023-12-15T02:13:15.510Z,97.41
2023-12-15T02:13:48.067Z,97.41
2023-12-15T02:14:20.648Z,97.41
2023-12-15T02:14:53.117Z,97.41
2023-12-15T02:15:25.720Z,97.41
2023-12-15T02:15:59.127Z,97.41
2023-12-15T02:16:31.717Z,97.52
2023-12-15T02:17:04.960Z,97.52
2023-12-15T02:17:37.890Z,97.52
2023-12-15T02:18:09.968Z,97.52
2023-12-15T02:18:42.444Z,97.52
2023-12-15T02:19:14.956Z,97.62
2023-12-15T02:19:47.445Z,97.62
2023-12-15T02:20:19.948Z,97.62
2023-12-15T02:20:52.520Z,97.62
2023-12-15T02:21:25.041Z,97.62
2023-12-15T02:21:57.518Z,97.62
2023-12-15T02:22:30.128Z,97.72
2023-12-15T02:23:02.805Z,97.72
2023-12-15T02:23:35.345Z,97.72
2023-12-15T02:24:07.842Z,97.72
2023-12-15T02:24:40.362Z,97.83
2023-12-15T02:25:12.911Z,97.83
2023-12-15T02:25:45.454Z,97.83
2023-12-15T02:26:17.938Z,97.83
2023-12-15T02:26:50.332Z,97.83
2023-12-15T02:27:22.769Z,97.83
2023-12-15T02:27:55.338Z,97.83
2023-12-15T02:28:27.648Z,97.93
2023-12-15T02:29:00.118Z,97.93
2023-12-15T02:29:32.672Z,97.93
2023-12-15T02:30:05.128Z,97.93
2023-12-15T02:30:37.584Z,97.93
2023-12-15T02:31:10.091Z,98.03
2023-12-15T02:31:42.599Z,98.03
2023-12-15T02:32:15.137Z,98.03
2023-12-15T02:32:47.644Z,98.03
2023-12-15T02:33:20.141Z,98.03
2023-12-15T02:33:52.568Z,98.03
2023-12-15T02:34:25.032Z,98.03
2023-12-15T02:34:57.574Z,98.03
2023-12-15T02:35:30.828Z,98.13
2023-12-15T02:36:03.224Z,98.13
2023-12-15T02:36:35.650Z,98.13
2023-12-15T02:37:08.170Z,98.13
2023-12-15T02:37:40.675Z,98.13
2023-12-15T02:38:13.206Z,98.13
2023-12-15T02:38:45.651Z,98.24
2023-12-15T02:39:18.117Z,98.24
2023-12-15T02:39:50.671Z,98.24
2023-12-15T02:40:23.179Z,98.24
2023-12-15T02:40:55.731Z,98.24
2023-12-15T02:41:28.304Z,98.24
2023-12-15T02:42:00.758Z,98.24
2023-12-15T02:42:33.206Z,98.19
2023-12-15T02:43:05.716Z,98.19
2023-12-15T02:43:38.214Z,98.30
2023-12-15T02:44:10.716Z,98.30
2023-12-15T02:44:43.141Z,98.30
2023-12-15T02:45:15.625Z,98.30
2023-12-15T02:45:48.051Z,98.30
2023-12-15T02:46:20.503Z,98.30
2023-12-15T02:46:52.977Z,98.30
2023-12-15T02:47:25.628Z,98.30
2023-12-15T02:47:58.176Z,98.40
2023-12-15T02:48:30.658Z,98.30
2023-12-15T02:49:03.132Z,98.40
2023-12-15T02:49:35.554Z,98.40
2023-12-15T02:50:08.121Z,98.40
2023-12-15T02:50:40.549Z,98.40
2023-12-15T02:51:13.065Z,98.40
2023-12-15T02:51:45.572Z,98.40
2023-12-15T02:52:18.027Z,98.40
2023-12-15T02:52:50.613Z,98.40
2023-12-15T02:53:23.209Z,98.40
2023-12-15T02:53:55.705Z,98.40
2023-12-15T02:54:28.226Z,98.40
2023-12-15T02:55:00.749Z,98.40
2023-12-15T02:55:33.305Z,98.40
2023-12-15T02:56:05.886Z,98.40
2023-12-15T02:56:38.300Z,98.40
2023-12-15T02:57:10.775Z,98.40
2023-12-15T02:57:43.208Z,98.50
2023-12-15T02:58:15.737Z,98.50
2023-12-15T02:58:48.220Z,98.50
2023-12-15T02:59:20.660Z,98.50
2023-12-15T02:59:53.106Z,98.50
2023-12-15T03:00:25.628Z,98.50
2023-12-15T03:00:58.084Z,98.50
2023-12-15T03:01:30.508Z,98.50
2023-12-15T03:02:03.035Z,98.50
2023-12-15T03:02:35.568Z,98.50
2023-12-15T03:03:08.085Z,98.50
2023-12-15T03:03:40.523Z,98.50
2023-12-15T03:04:12.980Z,98.50
2023-12-15T03:04:45.501Z,98.50
2023-12-15T03:05:18.031Z,98.50
2023-12-15T03:05:50.621Z,98.50
2023-12-15T03:06:23.128Z,98.50
2023-12-15T03:06:55.604Z,98.50
2023-12-15T03:07:28.133Z,98.50
2023-12-15T03:08:00.713Z,98.50
2023-12-15T03:08:33.148Z,98.50
2023-12-15T03:09:05.613Z,98.50
2023-12-15T03:09:38.060Z,98.61
2023-12-15T03:10:10.572Z,98.61
2023-12-15T03:10:43.102Z,98.61
2023-12-15T03:11:15.634Z,98.61
2023-12-15T03:11:48.120Z,98.61
2023-12-15T03:12:20.562Z,98.61
2023-12-15T03:12:53.014Z,98.61
2023-12-15T03:13:25.504Z,98.61
2023-12-15T03:13:58.012Z,98.56
2023-12-15T03:14:30.523Z,98.61
2023-12-15T03:15:02.954Z,98.61
2023-12-15T03:15:35.364Z,98.61
2023-12-15T03:16:07.792Z,98.56
2023-12-15T03:16:40.421Z,98.56
2023-12-15T03:17:12.864Z,98.61
2023-12-15T03:17:45.447Z,98.56
2023-12-15T03:18:17.902Z,98.56
2023-12-15T03:18:50.401Z,98.56
2023-12-15T03:19:22.981Z,98.56
2023-12-15T03:19:55.506Z,98.56
2023-12-15T03:20:27.894Z,98.66
2023-12-15T03:21:00.338Z,98.71
2023-12-15T03:21:32.841Z,98.66
2023-12-15T03:22:05.392Z,98.71
2023-12-15T03:22:37.853Z,98.66
2023-12-15T03:23:10.396Z,98.66
2023-12-15T03:23:42.867Z,98.66
2023-12-15T03:24:15.293Z,98.66
2023-12-15T03:24:47.740Z,98.66
2023-12-15T03:25:20.212Z,98.66
2023-12-15T03:25:52.721Z,98.77
2023-12-15T03:26:25.258Z,98.77
2023-12-15T03:26:57.724Z,98.77
2023-12-15T03:27:30.248Z,98.77
2023-12-15T03:28:02.700Z,98.77
2023-12-15T03:28:35.139Z,98.77
2023-12-15T03:29:07.662Z,98.77
2023-12-15T03:29:40.116Z,98.77
2023-12-15T03:30:12.582Z,98.77
2023-12-15T03:30:45.049Z,98.77
2023-12-15T03:31:17.455Z,98.77
2023-12-15T03:31:49.927Z,98.77
2023-12-15T03:32:22.601Z,98.87
2023-12-15T03:32:55.141Z,98.87
2023-12-15T03:33:27.834Z,98.87
2023-12-15T03:34:00.262Z,98.87
2023-12-15T03:34:32.749Z,98.87
2023-12-15T03:35:05.319Z,98.87
2023-12-15T03:35:37.773Z,98.87
2023-12-15T03:36:10.341Z,98.87
2023-12-15T03:36:42.849Z,98.97
2023-12-15T03:37:15.366Z,98.97
2023-12-15T03:37:47.840Z,98.97
2023-12-15T03:38:20.427Z,98.97
2023-12-15T03:38:52.934Z,98.97
2023-12-15T03:39:25.403Z,98.97
2023-12-15T03:39:57.902Z,98.97
2023-12-15T03:40:30.354Z,98.97
2023-12-15T03:41:03.012Z,98.97
2023-12-15T03:41:35.720Z,98.97
2023-12-15T03:42:08.226Z,98.97
2023-12-15T03:42:40.720Z,98.97
2023-12-15T03:43:13.177Z,99.08
2023-12-15T03:43:45.725Z,98.97
2023-12-15T03:44:18.338Z,99.08
2023-12-15T03:44:50.759Z,99.08
2023-12-15T03:45:23.215Z,99.08
2023-12-15T03:45:55.690Z,99.08
2023-12-15T03:46:28.167Z,99.08
2023-12-15T03:47:00.665Z,99.08
2023-12-15T03:47:33.284Z,99.08
2023-12-15T03:48:05.796Z,99.08
2023-12-15T03:48:38.219Z,99.08
2023-12-15T03:49:10.790Z,99.08
2023-12-15T03:49:43.242Z,99.08
2023-12-15T03:50:15.757Z,99.08
2023-12-15T03:50:48.151Z,99.08
2023-12-15T03:51:20.693Z,99.08
2023-12-15T03:51:53.240Z,99.08
2023-12-15T03:52:25.804Z,99.08
2023-12-15T03:52:58.379Z,99.08
2023-12-15T03:53:30.873Z,99.08
2023-12-15T03:54:03.359Z,99.08
2023-12-15T03:54:35.841Z,99.08
2023-12-15T03:55:08.382Z,99.08
2023-12-15T03:55:40.823Z,99.08
2023-12-15T03:56:13.350Z,99.08
2023-12-15T03:56:45.906Z,99.08
2023-12-15T03:57:18.430Z,99.08
2023-12-15T03:57:50.874Z,99.08
2023-12-15T03:58:23.348Z,99.08
2023-12-15T03:58:55.951Z,99.08
2023-12-15T03:59:33.117Z,99.08
2023-12-15T04:00:05.447Z,99.08
2023-12-15T04:00:38.017Z,99.18
2023-12-15T04:01:10.558Z,99.18
2023-12-15T04:01:42.971Z,99.18
2023-12-15T04:02:15.447Z,99.18
2023-12-15T04:02:47.980Z,99.18
2023-12-15T04:03:20.587Z,99.18
2023-12-15T04:03:53.086Z,99.18
2023-12-15T04:04:25.546Z,99.18
2023-12-15T04:04:58.071Z,99.18
2023-12-15T04:05:30.622Z,99.18
2023-12-15T04:06:03.350Z,99.18
2023-12-15T04:06:35.688Z,99.18
2023-12-15T04:07:08.166Z,99.18
2023-12-15T04:07:40.645Z,99.18
2023-12-15T04:08:13.193Z,99.18
2023-12-15T04:08:45.717Z,99.18
2023-12-15T04:09:18.274Z,99.18
2023-12-15T04:09:50.760Z,99.18
2023-12-15T04:10:23.212Z,99.18
2023-12-15T04:10:55.774Z,99.18
2023-12-15T04:11:28.233Z,99.18
2023-12-15T04:12:00.773Z,99.18
2023-12-15T04:12:33.330Z,99.18
2023-12-15T04:13:05.835Z,99.18
2023-12-15T04:13:38.300Z,99.29
2023-12-15T04:14:10.798Z,99.29
2023-12-15T04:14:43.498Z,99.29
2023-12-15T04:15:16.002Z,99.29
2023-12-15T04:15:48.479Z,99.29
2023-12-15T04:16:20.934Z,99.29
2023-12-15T04:16:53.662Z,99.29
2023-12-15T04:17:26.297Z,99.29
2023-12-15T04:17:58.961Z,99.29
2023-12-15T04:18:31.416Z,99.29
2023-12-15T04:19:03.899Z,99.29
2023-12-15T04:19:36.410Z,99.29
2023-12-15T04:20:08.930Z,99.29
2023-12-15T04:20:41.333Z,99.29
2023-12-15T04:21:13.817Z,99.29
2023-12-15T04:21:46.361Z,99.29
2023-12-15T04:22:18.894Z,99.29
2023-12-15T04:22:51.335Z,99.29
2023-12-15T04:23:23.777Z,99.29
2023-12-15T04:23:56.209Z,99.29
2023-12-15T04:24:28.650Z,99.24
2023-12-15T04:25:01.257Z,99.24
2023-12-15T04:25:33.803Z,99.24
2023-12-15T04:26:06.294Z,99.24
2023-12-15T04:26:38.748Z,99.24
2023-12-15T04:27:11.292Z,99.24
2023-12-15T04:27:44.018Z,99.24
2023-12-15T04:28:16.162Z,99.24
2023-12-15T04:28:48.635Z,99.24
2023-12-15T04:29:21.122Z,99.24
2023-12-15T04:29:53.602Z,99.24
2023-12-15T04:30:26.100Z,99.24
2023-12-15T04:30:58.502Z,99.24
2023-12-15T04:31:30.930Z,99.24
2023-12-15T04:32:03.439Z,99.24
2023-12-15T04:32:36.058Z,99.24
2023-12-15T04:33:08.452Z,99.24
2023-12-15T04:33:40.920Z,99.24
2023-12-15T04:34:13.505Z,99.24
2023-12-15T04:34:45.968Z,99.24
2023-12-15T04:35:18.440Z,99.24
2023-12-15T04:35:50.866Z,99.24
2023-12-15T04:36:23.369Z,99.24
2023-12-15T04:36:55.797Z,99.24
2023-12-15T04:37:28.256Z,99.24
2023-12-15T04:38:00.785Z,99.24
2023-12-15T04:38:33.287Z,99.24
2023-12-15T04:39:05.800Z,99.24
2023-12-15T04:39:38.301Z,99.24
2023-12-15T04:40:10.826Z,99.24
2023-12-15T04:40:43.305Z,99.24
2023-12-15T04:41:15.788Z,99.24
2023-12-15T04:41:48.288Z,99.24
2023-12-15T04:42:20.806Z,99.24
2023-12-15T04:42:53.342Z,99.24
2023-12-15T04:43:25.797Z,99.24
2023-12-15T04:43:58.244Z,99.24
2023-12-15T04:44:30.709Z,99.24
2023-12-15T04:45:03.179Z,99.24
2023-12-15T04:45:35.700Z,99.24
2023-12-15T04:46:08.216Z,99.24
2023-12-15T04:46:40.677Z,99.24
2023-12-15T04:47:13.211Z,99.24
2023-12-15T04:47:45.977Z,99.24
2023-12-15T04:48:18.394Z,99.24
2023-12-15T04:48:50.985Z,99.24
2023-12-15T04:49:23.415Z,99.24
2023-12-15T04:49:55.895Z,99.24
2023-12-15T04:50:28.360Z,99.24
2023-12-15T04:51:00.817Z,99.24
2023-12-15T04:51:33.254Z,99.24
2023-12-15T04:52:05.717Z,99.24
2023-12-15T04:52:38.157Z,99.24
2023-12-15T04:53:12.331Z,99.24
2023-12-15T04:53:45.541Z,99.24
2023-12-15T04:54:18.065Z,99.24
2023-12-15T04:54:50.582Z,99.24
2023-12-15T04:55:23.088Z,99.24
2023-12-15T04:55:55.680Z,99.24
2023-12-15T04:56:28.189Z,99.24
2023-12-15T04:57:00.675Z,99.24
2023-12-15T04:57:33.193Z,99.24
2023-12-15T04:58:05.649Z,99.24
2023-12-15T04:58:38.154Z,99.24
2023-12-15T04:59:10.789Z,99.24
2023-12-15T04:59:43.220Z,99.24
2023-12-15T05:00:15.714Z,99.24
2023-12-15T05:00:48.278Z,99.24
2023-12-15T05:01:20.759Z,99.24
2023-12-15T05:01:53.290Z,99.24
2023-12-15T05:02:25.911Z,99.24
2023-12-15T05:02:58.509Z,99.24
2023-12-15T05:03:31.086Z,99.19
2023-12-15T05:04:03.552Z,99.24
2023-12-15T05:04:37.305Z,99.19
2023-12-15T05:05:08.761Z,99.34
2023-12-15T05:05:41.334Z,99.19
2023-12-15T05:06:13.819Z,99.19
2023-12-15T05:06:46.249Z,99.19
2023-12-15T05:07:18.717Z,99.19
2023-12-15T05:07:51.194Z,99.19
2023-12-15T05:08:23.703Z,99.19
2023-12-15T05:08:56.119Z,99.19
2023-12-15T05:09:28.571Z,99.19
2023-12-15T05:10:01.104Z,99.30
2023-12-15T05:10:33.548Z,99.19
2023-12-15T05:11:06.049Z,99.30
2023-12-15T05:11:38.544Z,99.19
2023-12-15T05:12:11.015Z,99.19
2023-12-15T05:12:43.541Z,99.19
2023-12-15T05:13:16.032Z,99.19
2023-12-15T05:13:48.482Z,99.19
2023-12-15T05:14:21.042Z,99.30
2023-12-15T05:14:53.509Z,99.19
2023-12-15T05:15:26.013Z,99.19
2023-12-15T05:15:58.470Z,99.19
2023-12-15T05:16:30.933Z,99.19
2023-12-15T05:17:03.455Z,99.19
2023-12-15T05:17:36.312Z,99.19
2023-12-15T05:18:08.700Z,99.30
2023-12-15T05:18:41.076Z,99.30
2023-12-15T05:19:13.455Z,99.19
2023-12-15T05:19:45.868Z,99.19
2023-12-15T05:20:18.403Z,99.19
2023-12-15T05:20:50.944Z,99.30
2023-12-15T05:21:23.397Z,99.30
2023-12-15T05:21:55.957Z,99.30
2023-12-15T05:22:28.486Z,99.30
2023-12-15T05:23:01.084Z,99.30
2023-12-15T05:23:33.668Z,99.30
2023-12-15T05:24:06.073Z,99.30
2023-12-15T05:24:38.563Z,99.30
2023-12-15T05:25:11.028Z,99.30
2023-12-15T05:25:43.471Z,99.30
2023-12-15T05:26:16.055Z,99.30
2023-12-15T05:26:48.552Z,99.30
2023-12-15T05:27:21.059Z,99.30
2023-12-15T05:27:53.511Z,99.30
2023-12-15T05:28:25.983Z,99.30
2023-12-15T05:28:59.891Z,99.30
2023-12-15T05:29:31.086Z,99.30
2023-12-15T05:30:03.663Z,99.30
2023-12-15T05:30:36.087Z,99.30
2023-12-15T05:31:08.588Z,99.30
2023-12-15T05:31:41.117Z,99.30
2023-12-15T05:32:13.652Z,99.30
2023-12-15T05:32:46.638Z,99.30
2023-12-15T05:33:19.433Z,99.30
2023-12-15T05:33:51.717Z,99.30
2023-12-15T05:34:24.138Z,99.30
2023-12-15T05:34:56.638Z,99.30
2023-12-15T05:35:29.220Z,99.30
2023-12-15T05:36:01.651Z,99.30
2023-12-15T05:36:34.124Z,99.30
2023-12-15T05:37:06.589Z,99.40
2023-12-15T05:37:40.142Z,99.40
2023-12-15T05:38:13.889Z,99.30
2023-12-15T05:38:46.406Z,99.30
2023-12-15T05:39:18.904Z,99.30
2023-12-15T05:39:51.380Z,99.40
2023-12-15T05:40:23.911Z,99.40
2023-12-15T05:40:56.425Z,99.40
2023-12-15T05:41:28.852Z,99.40
2023-12-15T05:42:01.323Z,99.35
2023-12-15T05:42:33.843Z,99.35
2023-12-15T05:43:06.325Z,99.35
2023-12-15T05:43:38.749Z,99.35
2023-12-15T05:44:11.263Z,99.40
2023-12-15T05:44:43.776Z,99.35
2023-12-15T05:45:16.175Z,99.35
2023-12-15T05:45:48.665Z,99.35
2023-12-15T05:46:21.186Z,99.35
2023-12-15T05:46:53.747Z,99.35
2023-12-15T05:47:26.273Z,99.35
2023-12-15T05:47:58.753Z,99.35
2023-12-15T05:48:31.314Z,99.35
2023-12-15T05:49:03.998Z,99.35
2023-12-15T05:49:36.151Z,99.35
2023-12-15T05:50:08.740Z,99.35
2023-12-15T05:50:41.118Z,99.35
2023-12-15T05:51:13.550Z,99.35
2023-12-15T05:51:46.004Z,99.46
2023-12-15T05:52:18.529Z,99.35
2023-12-15T05:52:51.040Z,99.35
2023-12-15T05:53:23.530Z,99.35
2023-12-15T05:53:58.467Z,99.35
2023-12-15T05:54:28.410Z,99.46
2023-12-15T05:55:00.874Z,99.46
2023-12-15T05:55:33.379Z,99.46
2023-12-15T05:56:05.840Z,99.46
2023-12-15T05:56:38.299Z,99.46
2023-12-15T05:57:12.790Z,99.46
2023-12-15T05:57:43.257Z,99.46
2023-12-15T05:58:15.693Z,99.46
2023-12-15T05:58:48.156Z,99.46
2023-12-15T05:59:20.607Z,99.46
2023-12-15T05:59:53.079Z,99.46
2023-12-15T06:00:25.497Z,99.46
2023-12-15T06:00:58.011Z,99.46
2023-12-15T06:01:30.483Z,99.46
2023-12-15T06:02:02.975Z,99.46
2023-12-15T06:02:35.451Z,99.46
2023-12-15T06:03:07.898Z,99.46
2023-12-15T06:03:40.822Z,99.46
2023-12-15T06:04:13.270Z,99.46
2023-12-15T06:04:45.762Z,99.46
2023-12-15T06:05:18.314Z,99.46
2023-12-15T06:05:50.751Z,99.46
2023-12-15T06:06:23.228Z,99.46
2023-12-15T06:06:55.679Z,99.46
2023-12-15T06:07:28.186Z,99.46
2023-12-15T06:08:00.670Z,99.46
2023-12-15T06:08:33.164Z,99.46
2023-12-15T06:09:05.620Z,99.46
2023-12-15T06:09:38.569Z,99.46
2023-12-15T06:10:10.638Z,99.46
2023-12-15T06:10:43.166Z,99.46
2023-12-15T06:11:15.646Z,99.46
2023-12-15T06:11:48.110Z,99.56
2023-12-15T06:12:20.583Z,99.46
2023-12-15T06:12:53.087Z,99.56
2023-12-15T06:13:25.608Z,99.56
2023-12-15T06:13:58.287Z,99.56
2023-12-15T06:14:30.689Z,99.56
2023-12-15T06:15:03.204Z,99.56
2023-12-15T06:15:35.660Z,99.56
2023-12-15T06:16:08.090Z,99.56
2023-12-15T06:16:40.598Z,99.56
2023-12-15T06:17:13.108Z,99.56
2023-12-15T06:17:45.916Z,99.56
2023-12-15T06:18:18.286Z,99.56
2023-12-15T06:18:50.786Z,99.56
2023-12-15T06:19:23.153Z,99.56
2023-12-15T06:19:55.661Z,99.56
2023-12-15T06:20:28.411Z,99.56
2023-12-15T06:21:00.852Z,99.56
2023-12-15T06:21:33.452Z,99.56
2023-12-15T06:22:05.987Z,99.56
2023-12-15T06:22:38.528Z,99.56
2023-12-15T06:23:11.124Z,99.56
2023-12-15T06:23:43.516Z,99.56
2023-12-15T06:24:16.021Z,99.56
2023-12-15T06:24:48.488Z,99.56
2023-12-15T06:25:20.983Z,99.56
2023-12-15T06:25:53.622Z,99.56
2023-12-15T06:26:26.127Z,99.56
2023-12-15T06:26:58.614Z,99.56
2023-12-15T06:27:31.064Z,99.56
2023-12-15T06:28:03.517Z,99.66
2023-12-15T06:28:36.050Z,99.56
2023-12-15T06:29:08.606Z,99.66
2023-12-15T06:29:41.050Z,99.66
2023-12-15T06:30:13.498Z,99.66
2023-12-15T06:30:46.054Z,99.66
2023-12-15T06:31:18.524Z,99.66
2023-12-15T06:31:51.048Z,99.66
2023-12-15T06:32:23.553Z,99.66
2023-12-15T06:32:56.006Z,99.66
2023-12-15T06:33:28.541Z,99.66
2023-12-15T06:34:01.080Z,99.66
2023-12-15T06:34:33.462Z,99.66
2023-12-15T06:35:05.949Z,99.66
2023-12-15T06:35:38.432Z,99.66
2023-12-15T06:36:10.852Z,99.66
2023-12-15T06:36:43.318Z,99.66
2023-12-15T06:37:15.820Z,99.66
2023-12-15T06:37:48.278Z,99.66
2023-12-15T06:38:20.868Z,99.66
2023-12-15T06:38:53.277Z,99.66
2023-12-15T06:39:25.729Z,99.62
2023-12-15T06:39:58.202Z,99.62
2023-12-15T06:40:30.637Z,99.66
2023-12-15T06:41:03.147Z,99.62
2023-12-15T06:41:35.599Z,99.62
2023-12-15T06:42:08.046Z,99.72
2023-12-15T06:42:40.533Z,99.72
2023-12-15T06:43:13.000Z,99.72
2023-12-15T06:43:45.493Z,99.72
2023-12-15T06:44:18.044Z,99.72
2023-12-15T06:44:50.469Z,99.72
2023-12-15T06:45:23.001Z,99.72
2023-12-15T06:45:55.525Z,99.72
2023-12-15T06:46:27.982Z,99.72
2023-12-15T06:47:00.498Z,99.72
2023-12-15T06:47:33.069Z,99.72
2023-12-15T06:48:05.623Z,99.72
2023-12-15T06:48:38.014Z,99.72
2023-12-15T06:49:10.468Z,99.72
2023-12-15T06:49:42.974Z,99.72
2023-12-15T06:50:15.454Z,99.72
2023-12-15T06:50:47.959Z,99.72
2023-12-15T06:51:20.380Z,99.72
2023-12-15T06:51:52.960Z,99.72
2023-12-15T06:52:25.475Z,99.72
2023-12-15T06:52:58.048Z,99.72
2023-12-15T06:53:30.875Z,99.72
2023-12-15T06:54:03.451Z,99.72
2023-12-15T06:54:35.983Z,99.72
2023-12-15T06:55:08.524Z,99.72
2023-12-15T06:55:41.494Z,99.72
2023-12-15T06:56:14.301Z,99.72
2023-12-15T06:56:47.194Z,99.72
2023-12-15T06:57:19.705Z,99.72
2023-12-15T06:57:54.847Z,99.72
2023-12-15T06:58:25.028Z,99.72
2023-12-15T06:58:57.820Z,99.72